Time;durP1;ratioP1;P1;durP2;ratioP2;P2;SDS_P1;SDS_P2;PMS_P1;PMS_P2;Temp;Humidity;BMP_temperature;BMP_pressure;BME280_temperature;BME280_humidity;BME280_pressure;Samples;Min_cycle;Max_cycle;Signal;HPM_P1;HPM_P2
2023/08/11 00:01:23;;;;;;;7.30;6.60;;;;;;;14.74;98.59;101872.84;5050259;28;20033;-74
2023/08/11 00:03:49;;;;;;;8.45;6.85;;;;;;;14.70;98.41;101867.81;5053436;28;20021;-74
2023/08/11 00:06:16;;;;;;;7.57;6.80;;;;;;;14.68;98.38;101875.31;5049772;28;20033;-74
2023/08/11 00:08:42;;;;;;;8.10;6.35;;;;;;;14.68;98.46;101874.47;5049768;28;20457;-74
2023/08/11 00:11:07;;;;;;;7.25;6.43;;;;;;;14.67;98.72;101875.50;5050340;28;20021;-74
2023/08/11 00:13:33;;;;;;;7.57;6.82;;;;;;;14.63;98.54;101871.50;5051985;28;20083;-74
2023/08/11 00:15:58;;;;;;;7.43;6.47;;;;;;;14.59;98.88;101887.31;5050692;28;20041;-74
2023/08/11 00:18:23;;;;;;;7.18;6.45;;;;;;;14.55;99.26;101892.31;5058099;28;20036;-76
2023/08/11 00:20:49;;;;;;;8.25;7.22;;;;;;;14.49;99.62;101886.81;5051282;28;20418;-76
2023/08/11 00:23:15;;;;;;;7.57;6.70;;;;;;;14.46;99.88;101882.66;5054452;28;20031;-74
2023/08/11 00:25:40;;;;;;;8.82;6.70;;;;;;;14.43;100.00;101884.91;5053417;28;20020;-74
2023/08/11 00:28:06;;;;;;;10.00;6.85;;;;;;;14.41;100.00;101885.09;5054442;28;20094;-74
2023/08/11 00:30:36;;;;;;;8.13;6.80;;;;;;;14.39;100.00;101888.03;5054613;28;20029;-76
2023/08/11 00:33:01;;;;;;;7.50;6.80;;;;;;;14.34;100.00;101884.22;5054438;28;20358;-74
2023/08/11 00:35:27;;;;;;;7.18;6.32;;;;;;;14.32;100.00;101878.16;5053484;28;20025;-74
2023/08/11 00:37:52;;;;;;;7.28;6.57;;;;;;;14.30;100.00;101883.75;5060894;28;20025;-75
2023/08/11 00:40:18;;;;;;;8.10;6.93;;;;;;;14.30;100.00;101872.09;5059612;28;20028;-74
2023/08/11 00:42:43;;;;;;;10.57;7.32;;;;;;;14.29;100.00;101874.00;5054284;28;20161;-74
2023/08/11 00:45:09;;;;;;;8.30;6.95;;;;;;;14.27;100.00;101867.94;5053909;28;20037;-74
2023/08/11 00:47:35;;;;;;;9.00;7.55;;;;;;;14.29;100.00;101865.88;5053459;28;20033;-76
2023/08/11 00:50:01;;;;;;;8.05;7.15;;;;;;;14.28;100.00;101874.16;5054746;28;20021;-77
2023/08/11 00:52:27;;;;;;;9.73;7.47;;;;;;;14.27;100.00;101867.94;5024507;28;20078;-74
2023/08/11 00:54:53;;;;;;;14.15;11.80;;;;;;;14.25;100.00;101859.16;5039168;28;20029;-75
2023/08/11 00:57:20;;;;;;;9.57;8.30;;;;;;;14.24;100.00;101858.31;5052661;28;20043;-75
2023/08/11 00:59:48;;;;;;;9.80;8.32;;;;;;;14.25;100.00;101861.88;5055732;28;20475;-75
2023/08/11 01:02:14;;;;;;;11.25;8.88;;;;;;;14.21;100.00;101864.13;5035111;28;20033;-75
2023/08/11 01:04:39;;;;;;;11.93;10.13;;;;;;;14.19;100.00;101852.66;5054005;28;20048;-75
2023/08/11 01:07:10;;;;;;;12.07;9.02;;;;;;;14.15;100.00;101851.38;5054700;28;20021;-75
2023/08/11 01:09:53;;;;;;;10.82;8.90;;;;;;;14.09;100.00;101853.00;5042454;28;20024;-75
2023/08/11 01:12:55;;;;;;;8.85;7.90;;;;;;;14.05;100.00;101858.97;5039907;28;20497;-74
2023/08/11 01:15:32;;;;;;;10.13;7.60;;;;;;;14.01;100.00;101855.84;5021105;28;20070;-74
2023/08/11 01:17:59;;;;;;;8.60;7.78;;;;;;;14.01;100.00;101853.13;5048662;28;20043;-75
2023/08/11 01:20:24;;;;;;;8.23;7.20;;;;;;;14.01;100.00;101846.91;5037400;28;20492;-75
2023/08/11 01:22:52;;;;;;;9.95;7.78;;;;;;;14.01;100.00;101841.47;5038113;28;20427;-75
2023/08/11 01:25:18;;;;;;;8.23;7.25;;;;;;;14.04;100.00;101847.31;5035025;28;20483;-75
2023/08/11 01:27:44;;;;;;;7.45;6.72;;;;;;;14.04;100.00;101843.78;5015452;28;20028;-75
2023/08/11 01:30:13;;;;;;;7.90;6.75;;;;;;;14.02;100.00;101846.69;5053023;28;20087;-75
2023/08/11 01:32:39;;;;;;;10.23;7.28;;;;;;;14.12;100.00;101843.63;5045998;28;20045;-75
2023/08/11 01:35:05;;;;;;;7.35;6.65;;;;;;;14.19;100.00;101846.41;5049143;28;20033;-75
2023/08/11 01:37:31;;;;;;;9.13;7.60;;;;;;;14.10;100.00;101846.56;5052907;28;20120;-75
2023/08/11 01:39:57;;;;;;;8.77;7.30;;;;;;;14.02;100.00;101841.28;5051265;28;20025;-74
2023/08/11 01:42:23;;;;;;;8.23;7.43;;;;;;;13.99;100.00;101844.34;5053286;28;20490;-75
2023/08/11 01:44:48;;;;;;;8.82;7.45;;;;;;;13.96;100.00;101844.75;5035280;28;20032;-74
2023/08/11 01:47:15;;;;;;;8.60;7.72;;;;;;;13.96;100.00;101844.75;5016274;28;20057;-75
2023/08/11 01:49:41;;;;;;;8.68;7.78;;;;;;;13.91;100.00;101844.53;5037555;28;20039;-74
2023/08/11 01:52:08;;;;;;;9.25;8.23;;;;;;;13.88;100.00;101836.78;5010939;28;20108;-75
2023/08/11 01:54:33;;;;;;;10.48;9.40;;;;;;;13.85;100.00;101834.47;5057640;28;20025;-74
2023/08/11 01:56:59;;;;;;;14.30;11.45;;;;;;;13.80;100.00;101824.22;5051154;28;20026;-74
2023/08/11 01:59:24;;;;;;;13.88;12.43;;;;;;;13.76;100.00;101823.78;5024986;28;20361;-74
2023/08/11 02:01:49;;;;;;;15.00;11.32;;;;;;;13.77;100.00;101814.59;5066867;28;20029;-77
2023/08/11 02:04:15;;;;;;;12.95;11.43;;;;;;;13.77;100.00;101817.31;5057280;28;20538;-75
2023/08/11 02:06:40;;;;;;;15.07;11.38;;;;;;;13.75;100.00;101811.28;5026313;28;20039;-75
2023/08/11 02:09:08;;;;;;;11.88;10.60;;;;;;;13.76;100.00;101807.53;5051546;28;20031;-75
2023/08/11 02:11:34;;;;;;;10.02;8.32;;;;;;;13.79;100.00;101803.59;5058512;28;20119;-75
2023/08/11 02:13:59;;;;;;;10.20;8.02;;;;;;;13.83;100.00;101801.34;5051368;28;20092;-75
2023/08/11 02:16:25;;;;;;;11.38;7.55;;;;;;;13.82;100.00;101805.06;5050791;28;20419;-76
2023/08/11 02:18:50;;;;;;;9.63;8.63;;;;;;;13.82;100.00;101799.66;5055076;28;20025;-74
2023/08/11 02:21:16;;;;;;;12.65;7.93;;;;;;;13.78;100.00;101804.63;5059703;28;20025;-75
2023/08/11 02:23:41;;;;;;;9.18;7.50;;;;;;;13.78;100.00;101810.03;5053135;28;20029;-75
2023/08/11 02:26:07;;;;;;;8.77;7.88;;;;;;;13.78;100.00;101808.16;5053794;28;20033;-74
2023/08/11 02:28:33;;;;;;;9.70;7.63;;;;;;;13.77;100.00;101814.59;5053761;28;20021;-74
2023/08/11 02:30:58;;;;;;;7.82;7.03;;;;;;;13.72;100.00;101808.97;5048491;28;20067;-77
2023/08/11 02:33:29;;;;;;;8.65;7.68;;;;;;;13.70;100.00;101802.03;5050697;28;20366;-74
2023/08/11 02:35:55;;;;;;;8.32;7.45;;;;;;;13.68;100.00;101804.97;5062047;28;20033;-75
2023/08/11 02:38:20;;;;;;;9.18;7.53;;;;;;;13.66;100.00;101801.59;5036267;28;20525;-77
2023/08/11 02:40:46;;;;;;;9.50;7.75;;;;;;;13.63;100.00;101805.56;5051725;28;20036;-78
2023/08/11 02:43:11;;;;;;;8.38;7.25;;;;;;;13.62;100.00;101809.28;5053015;28;20124;-74
2023/08/11 02:45:36;;;;;;;10.38;7.97;;;;;;;13.60;100.00;101814.03;5049642;28;20025;-77
2023/08/11 02:48:02;;;;;;;9.65;7.85;;;;;;;13.57;100.00;101806.31;5049109;28;20024;-77
2023/08/11 02:50:27;;;;;;;9.55;7.40;;;;;;;13.55;100.00;101804.84;5053678;28;20025;-77
2023/08/11 02:52:53;;;;;;;9.13;8.05;;;;;;;13.56;100.00;101807.34;5051207;28;20066;-75
2023/08/11 02:55:19;;;;;;;10.02;8.15;;;;;;;13.53;100.00;101806.91;5048174;28;20032;-75
2023/08/11 02:57:45;;;;;;;10.63;7.85;;;;;;;13.54;100.00;101811.28;5050500;28;20025;-75
2023/08/11 03:00:14;;;;;;;9.38;8.40;;;;;;;13.55;100.00;101805.66;5045554;28;20032;-75
2023/08/11 03:02:45;;;;;;;8.88;7.95;;;;;;;13.52;100.00;101802.53;5048706;28;20473;-75
2023/08/11 03:05:11;;;;;;;10.25;7.72;;;;;;;13.49;100.00;101807.28;5050916;28;20055;-75
2023/08/11 03:07:38;;;;;;;9.23;8.30;;;;;;;13.47;100.00;101806.63;5049747;28;20044;-75
2023/08/11 03:10:03;;;;;;;10.55;8.30;;;;;;;13.41;100.00;101799.31;5049743;28;20496;-75
2023/08/11 03:12:29;;;;;;;9.35;7.53;;;;;;;13.40;100.00;101803.03;5050772;28;20080;-75
2023/08/11 03:14:54;;;;;;;9.90;8.10;;;;;;;13.39;100.00;101805.88;5048012;28;20031;-75
2023/08/11 03:17:20;;;;;;;9.10;8.05;;;;;;;13.38;100.00;101799.66;5049214;28;20032;-76
2023/08/11 03:19:45;;;;;;;10.40;8.48;;;;;;;13.36;100.00;101799.00;5033653;28;20492;-78
2023/08/11 03:22:10;;;;;;;10.07;8.43;;;;;;;13.33;100.00;101791.28;5048162;28;20040;-79
2023/08/11 03:24:36;;;;;;;10.07;8.00;;;;;;;13.33;100.00;101796.69;5051123;28;20095;-79
2023/08/11 03:27:06;;;;;;;11.88;8.15;;;;;;;13.31;100.00;101794.19;5054050;28;20025;-79
2023/08/11 03:29:31;;;;;;;11.20;7.93;;;;;;;13.30;100.00;101800.63;5052251;28;20445;-79
2023/08/11 03:31:56;;;;;;;10.85;8.25;;;;;;;13.27;100.00;101803.69;5050278;28;20017;-79
2023/08/11 03:34:22;;;;;;;17.45;12.18;;;;;;;13.25;100.00;101805.75;5050387;28;20029;-78
2023/08/11 03:36:47;;;;;;;17.30;12.65;;;;;;;13.22;100.00;101799.91;5049817;28;20025;-79
2023/08/11 03:39:13;;;;;;;11.68;9.50;;;;;;;13.18;100.00;101805.69;5047295;28;20354;-80
2023/08/11 03:41:38;;;;;;;11.88;9.23;;;;;;;13.16;100.00;101802.34;5055104;28;20037;-80
2023/08/11 03:44:04;;;;;;;11.85;8.80;;;;;;;13.12;100.00;101813.72;5050444;28;20029;-81
2023/08/11 03:46:30;;;;;;;14.63;8.40;;;;;;;13.08;100.00;101812.41;5051031;28;20025;-80
2023/08/11 03:48:55;;;;;;;11.00;8.82;;;;;;;13.06;100.00;101804.47;5058517;28;20021;-81
2023/08/11 03:51:20;;;;;;;10.00;8.95;;;;;;;13.03;100.00;101800.31;5055361;28;20029;-81
2023/08/11 03:53:46;;;;;;;12.35;8.90;;;;;;;13.02;100.00;101795.94;5047960;28;20024;-81
2023/08/11 03:56:12;;;;;;;13.52;9.30;;;;;;;13.01;100.00;101794.25;5055961;28;20079;-81
2023/08/11 03:58:38;;;;;;;10.82;9.45;;;;;;;13.03;100.00;101804.88;5057648;28;20029;-80
2023/08/11 04:01:04;;;;;;;10.82;8.75;;;;;;;13.04;100.00;101791.16;5054334;28;20037;-81
2023/08/11 04:03:31;;;;;;;11.15;9.35;;;;;;;13.05;100.00;101797.44;5051721;28;20525;-80
2023/08/11 04:05:57;;;;;;;11.10;9.68;;;;;;;13.07;100.00;101792.66;5054533;28;20017;-81
2023/08/11 04:08:24;;;;;;;13.80;9.60;;;;;;;13.09;100.00;101793.28;5053362;28;20024;-80
2023/08/11 04:10:50;;;;;;;11.98;9.32;;;;;;;13.09;100.00;101789.78;5059723;28;20033;-81
2023/08/11 04:13:15;;;;;;;17.60;10.35;;;;;;;13.09;100.00;101793.28;5055259;28;20049;-81
2023/08/11 04:15:41;;;;;;;11.15;8.65;;;;;;;13.09;100.00;101793.28;5052818;28;20091;-80
2023/08/11 04:18:06;;;;;;;9.63;8.65;;;;;;;13.10;100.00;101791.44;5060821;28;20025;-81
2023/08/11 04:20:33;;;;;;;12.57;9.32;;;;;;;13.12;100.00;101783.97;5060095;28;20029;-80
2023/08/11 04:22:58;;;;;;;12.13;9.00;;;;;;;13.16;100.00;101788.81;5054588;28;20032;-80
2023/08/11 04:25:24;;;;;;;12.30;9.60;;;;;;;13.19;100.00;101790.28;5051408;28;20540;-81
2023/08/11 04:27:49;;;;;;;11.70;9.63;;;;;;;13.22;100.00;101794.50;5054218;28;20484;-80
2023/08/11 04:30:14;;;;;;;10.85;9.25;;;;;;;13.27;100.00;101798.28;5054002;28;20029;-81
2023/08/11 04:32:40;;;;;;;9.68;8.68;;;;;;;13.29;100.00;101785.41;5054269;28;20431;-81
2023/08/11 04:35:07;;;;;;;9.98;8.95;;;;;;;13.33;100.00;101788.56;5055410;28;20377;-81
2023/08/11 04:37:33;;;;;;;11.93;8.93;;;;;;;13.41;100.00;101787.63;5053943;28;20140;-81
2023/08/11 04:39:59;;;;;;;11.60;8.75;;;;;;;13.46;100.00;101786.03;5053097;28;20389;-80
2023/08/11 04:42:24;;;;;;;10.25;8.35;;;;;;;13.52;100.00;101789.00;5053084;28;20028;-80
2023/08/11 04:44:50;;;;;;;11.60;8.85;;;;;;;13.58;100.00;101783.66;5052371;28;20039;-80
2023/08/11 04:47:15;;;;;;;10.05;8.25;;;;;;;13.65;100.00;101783.69;5051188;28;20398;-80
2023/08/11 04:49:42;;;;;;;9.88;8.13;;;;;;;13.73;100.00;101789.00;5054584;28;20107;-81
2023/08/11 04:52:08;;;;;;;10.32;8.40;;;;;;;13.79;100.00;101790.88;5048935;28;20033;-81
2023/08/11 04:54:33;;;;;;;11.82;8.73;;;;;;;13.88;100.00;101785.34;5061063;22;20105;-81
2023/08/11 04:56:59;;;;;;;13.23;8.25;;;;;;;13.94;100.00;101777.28;5054100;28;20025;-80
2023/08/11 04:59:24;;;;;;;9.85;8.15;;;;;;;14.03;100.00;101783.38;5052274;28;20102;-80
2023/08/11 05:01:50;;;;;;;9.68;8.07;;;;;;;14.13;100.00;101788.44;5050370;28;20025;-81
2023/08/11 05:04:15;;;;;;;10.20;8.15;;;;;;;14.21;100.00;101791.00;5054007;28;20154;-81
2023/08/11 05:06:43;;;;;;;14.23;8.20;;;;;;;14.29;100.00;101783.75;5044526;28;20044;-81
2023/08/11 05:09:09;;;;;;;11.60;7.88;;;;;;;14.39;100.00;101789.63;5052817;28;20032;-81
2023/08/11 05:11:34;;;;;;;8.73;7.82;;;;;;;14.49;100.00;101789.28;5048586;28;20033;-81
2023/08/11 05:14:00;;;;;;;9.80;7.43;;;;;;;14.59;100.00;101788.91;5052646;28;20048;-81
2023/08/11 05:16:25;;;;;;;11.77;7.53;;;;;;;14.72;100.00;101782.75;5050429;28;20472;-80
2023/08/11 05:18:50;;;;;;;9.85;7.57;;;;;;;14.83;99.14;101793.00;5052923;28;20072;-80
2023/08/11 05:21:17;;;;;;;8.32;7.13;;;;;;;14.92;98.17;101788.25;5035912;28;20037;-80
2023/08/11 05:23:43;;;;;;;9.20;7.13;;;;;;;15.01;97.49;101779.75;5045369;28;20525;-80
2023/08/11 05:26:08;;;;;;;9.15;7.45;;;;;;;15.09;96.72;101777.91;5053597;28;20060;-80
2023/08/11 05:28:34;;;;;;;8.35;7.00;;;;;;;15.14;96.34;101780.84;5043828;28;20021;-80
2023/08/11 05:31:01;;;;;;;10.18;7.30;;;;;;;15.28;95.56;101779.81;5054763;28;20054;-80
2023/08/11 05:33:26;;;;;;;8.73;7.60;;;;;;;15.37;95.18;101785.88;5071711;28;20090;-81
2023/08/11 05:35:51;;;;;;;7.72;6.97;;;;;;;15.45;94.34;101774.00;5062790;28;20033;-80
2023/08/11 05:38:20;;;;;;;9.18;7.68;;;;;;;15.54;94.59;101775.47;5066529;28;20358;-80
2023/08/11 05:40:46;;;;;;;10.00;6.93;;;;;;;15.60;94.02;101780.06;5060728;28;20052;-80
2023/08/11 05:43:11;;;;;;;8.20;6.78;;;;;;;15.76;93.15;101776.13;5048565;28;20021;-81
2023/08/11 05:45:36;;;;;;;9.45;6.88;;;;;;;15.95;91.96;101775.50;5046774;28;20491;-80
2023/08/11 05:48:02;;;;;;;7.55;6.75;;;;;;;16.01;91.32;101770.06;5045150;28;20017;-83
2023/08/11 05:50:27;;;;;;;7.38;6.68;;;;;;;16.16;90.68;101772.56;5045308;28;20025;-82
2023/08/11 05:52:53;;;;;;;8.50;6.55;;;;;;;16.33;89.33;101772.91;5047429;28;20362;-80
2023/08/11 05:55:19;;;;;;;9.73;6.22;;;;;;;16.50;88.05;101770.59;5051845;28;20032;-81
2023/08/11 05:57:45;;;;;;;7.60;6.70;;;;;;;16.76;86.77;101768.81;5033730;28;20038;-80
2023/08/11 06:00:11;;;;;;;9.13;6.55;;;;;;;16.79;86.13;101779.25;5049345;28;20025;-79
2023/08/11 06:02:37;;;;;;;8.07;6.45;;;;;;;16.89;86.57;101780.69;5050510;28;20528;-79
2023/08/11 06:05:02;;;;;;;8.88;5.97;;;;;;;17.05;85.49;101774.78;5050570;28;20366;-80
2023/08/11 06:07:28;;;;;;;6.95;6.22;;;;;;;17.16;85.16;101761.50;5049663;28;20033;-77
2023/08/11 06:09:54;;;;;;;8.43;6.32;;;;;;;17.36;84.04;101770.38;5050067;28;20029;-77
2023/08/11 06:12:19;;;;;;;7.20;6.50;;;;;;;17.39;84.19;101772.66;5051112;28;20025;-77
2023/08/11 06:14:45;;;;;;;7.50;5.90;;;;;;;17.84;83.11;101770.84;5048424;28;20055;-77
2023/08/11 06:17:10;;;;;;;6.97;5.82;;;;;;;18.63;77.89;101765.66;5046646;28;20021;-78
2023/08/11 06:19:35;;;;;;;6.45;5.68;;;;;;;19.66;74.32;101762.09;5048939;28;20546;-78
2023/08/11 06:22:02;;;;;;;7.78;5.60;;;;;;;20.78;69.67;101764.03;5048900;28;20025;-78
2023/08/11 06:24:27;;;;;;;6.18;5.10;;;;;;;22.07;64.45;101768.97;5011295;28;20060;-79
2023/08/11 06:26:55;;;;;;;5.35;4.78;;;;;;;23.22;59.53;101765.72;5055385;28;20036;-80
2023/08/11 06:29:20;;;;;;;5.70;4.57;;;;;;;23.98;56.82;101766.59;5058178;28;20029;-82
2023/08/11 06:31:46;;;;;;;5.88;4.30;;;;;;;24.64;54.11;101763.34;5049456;28;20051;-82
2023/08/11 06:34:12;;;;;;;5.93;4.20;;;;;;;25.26;51.18;101760.72;5050393;28;20041;-82
2023/08/11 06:36:37;;;;;;;6.68;4.15;;;;;;;25.42;50.09;101767.13;5054219;28;20020;-80
2023/08/11 06:39:03;;;;;;;7.68;4.05;;;;;;;26.37;47.82;101783.25;5049412;28;20476;-80
2023/08/11 06:41:28;;;;;;;4.93;3.65;;;;;;;26.23;48.16;101773.91;5050889;28;20033;-81
2023/08/11 06:43:54;;;;;;;5.05;3.65;;;;;;;26.62;46.85;101773.22;5042302;28;20087;-80
2023/08/11 06:46:19;;;;;;;7.32;4.10;;;;;;;26.29;47.00;101775.56;5046664;28;20041;-80
2023/08/11 06:48:45;;;;;;;5.47;3.95;;;;;;;26.48;46.73;101779.31;5049438;28;20473;-83
2023/08/11 06:51:10;;;;;;;7.03;3.60;;;;;;;26.61;46.58;101779.84;5048322;28;20032;-81
2023/08/11 06:53:35;;;;;;;6.90;3.45;;;;;;;27.22;45.33;101777.84;5043032;28;20128;-82
2023/08/11 06:56:01;;;;;;;6.35;3.53;;;;;;;27.51;43.66;101779.88;5049748;28;20036;-80
2023/08/11 06:58:26;;;;;;;5.00;3.45;;;;;;;27.67;43.56;101781.38;5045981;28;20026;-80
2023/08/11 07:00:52;;;;;;;5.20;3.20;;;;;;;28.44;41.82;101778.88;5033166;28;20040;-80
2023/08/11 07:03:17;;;;;;;5.70;3.50;;;;;;;27.90;42.59;101781.69;5046585;28;20025;-80
2023/08/11 07:05:42;;;;;;;4.85;3.40;;;;;;;28.82;40.56;101784.50;5037884;28;20496;-80
2023/08/11 07:08:08;;;;;;;7.55;3.40;;;;;;;28.63;39.64;101772.56;5045719;28;20043;-80
2023/08/11 07:10:33;;;;;;;7.72;3.40;;;;;;;28.60;39.99;101777.56;5042068;28;20044;-80
2023/08/11 07:12:59;;;;;;;5.15;3.03;;;;;;;28.38;41.35;101780.09;5043202;28;20100;-80
2023/08/11 07:15:24;;;;;;;7.97;2.90;;;;;;;28.35;40.29;101780.69;5047588;28;20044;-80
2023/08/11 07:17:50;;;;;;;6.00;3.10;;;;;;;29.15;39.25;101783.75;5050774;28;20023;-80
2023/08/11 07:20:16;;;;;;;5.05;3.10;;;;;;;29.75;38.38;101790.53;5042254;28;20037;-80
2023/08/11 07:22:41;;;;;;;4.13;2.88;;;;;;;30.69;35.58;101788.47;5049706;28;20037;-80
2023/08/11 07:25:07;;;;;;;5.00;2.92;;;;;;;30.58;35.62;101791.78;5042899;28;20592;-80
2023/08/11 07:27:32;;;;;;;4.82;3.25;;;;;;;30.32;35.85;101795.88;5041623;28;20071;-81
2023/08/11 07:29:58;;;;;;;7.15;3.38;;;;;;;30.37;35.95;101792.97;5039205;28;20025;-80
2023/08/11 07:32:23;;;;;;;4.97;3.33;;;;;;;30.87;35.03;101799.75;5048680;28;20393;-81
2023/08/11 07:34:48;;;;;;;5.50;2.78;;;;;;;30.84;35.04;101789.25;5048160;28;20154;-80
2023/08/11 07:37:14;;;;;;;3.65;2.75;;;;;;;31.27;34.59;101791.56;5040246;28;20021;-81
2023/08/11 07:39:39;;;;;;;5.68;2.97;;;;;;;30.92;34.96;101777.38;5052363;28;20037;-81
2023/08/11 07:42:05;;;;;;;5.55;3.28;;;;;;;30.93;35.35;101787.34;5057087;28;20465;-81
2023/08/11 07:44:30;;;;;;;5.53;3.08;;;;;;;31.34;33.80;101793.09;5052444;28;20135;-81
2023/08/11 07:46:56;;;;;;;5.72;3.15;;;;;;;29.92;37.19;101787.19;5053744;28;20026;-80
2023/08/11 07:49:24;;;;;;;6.63;3.15;;;;;;;30.85;35.36;101796.44;5045721;28;20041;-81
2023/08/11 07:51:49;;;;;;;6.05;3.28;;;;;;;31.58;33.57;101801.94;5044556;28;20017;-81
2023/08/11 07:54:16;;;;;;;7.78;3.55;;;;;;;31.07;34.56;101794.81;5052012;28;20041;-81
2023/08/11 07:56:43;;;;;;;6.32;3.45;;;;;;;31.74;33.61;101798.78;5054009;28;20108;-81
2023/08/11 07:59:08;;;;;;;7.10;3.25;;;;;;;32.16;33.10;101788.16;5049316;28;20525;-81
2023/08/11 08:01:33;;;;;;;6.40;3.60;;;;;;;32.98;31.28;101788.84;5053527;28;20101;-81
2023/08/11 08:03:59;;;;;;;6.82;3.50;;;;;;;32.44;32.45;101801.88;5048903;28;20037;-81
2023/08/11 08:06:24;;;;;;;6.38;3.30;;;;;;;32.90;31.61;101788.53;5040032;28;20043;-80
2023/08/11 08:08:50;;;;;;;5.38;3.50;;;;;;;33.70;30.71;101804.03;5052603;28;20025;-81
2023/08/11 08:11:15;;;;;;;8.73;4.22;;;;;;;33.84;29.21;101792.63;5046524;28;20025;-81
2023/08/11 08:13:40;;;;;;;4.57;3.45;;;;;;;33.74;29.33;101794.97;5048551;28;20037;-81
2023/08/11 08:16:06;;;;;;;7.45;3.80;;;;;;;33.15;31.14;101794.41;5052947;28;20028;-80
2023/08/11 08:18:32;;;;;;;6.90;3.90;;;;;;;32.50;31.40;101797.78;5044834;28;20021;-80
2023/08/11 08:20:57;;;;;;;5.80;3.65;;;;;;;33.19;30.24;101800.13;5052446;28;20060;-80
2023/08/11 08:23:23;;;;;;;5.82;3.72;;;;;;;33.20;31.23;101796.19;5052560;28;20025;-80
2023/08/11 08:25:48;;;;;;;4.95;3.60;;;;;;;33.09;30.79;101793.75;5052879;28;20424;-80
2023/08/11 08:28:13;;;;;;;11.05;3.90;;;;;;;32.34;32.92;101799.38;5044852;28;20041;-80
2023/08/11 08:30:39;;;;;;;6.28;3.90;;;;;;;33.40;30.19;101803.13;5040894;28;20033;-80
2023/08/11 08:33:06;;;;;;;4.97;3.90;;;;;;;33.86;29.77;101803.50;5033551;28;20435;-79
2023/08/11 08:35:31;;;;;;;9.32;3.88;;;;;;;33.66;30.01;101791.88;5041385;28;20508;-80
2023/08/11 08:37:56;;;;;;;4.88;4.05;;;;;;;33.41;30.85;101791.59;5050945;28;20025;-80
2023/08/11 08:40:22;;;;;;;6.30;4.18;;;;;;;33.11;31.27;101797.03;5061126;28;20417;-80
2023/08/11 08:42:47;;;;;;;7.25;4.00;;;;;;;33.48;31.29;101791.09;5033681;28;20033;-80
2023/08/11 08:45:16;;;;;;;4.28;3.78;;;;;;;33.48;31.12;101790.28;5044526;28;20457;-80
2023/08/11 08:47:41;;;;;;;6.30;3.78;;;;;;;33.33;31.41;101789.63;5021556;28;20121;-80
2023/08/11 08:50:07;;;;;;;5.80;3.88;;;;;;;32.72;33.05;101786.84;5036831;28;20013;-80
2023/08/11 08:52:32;;;;;;;7.22;4.00;;;;;;;33.60;31.26;101784.84;5041301;28;20123;-80
2023/08/11 08:55:00;;;;;;;5.97;3.50;;;;;;;34.25;31.13;101784.75;5055426;28;20048;-80
2023/08/11 08:57:26;;;;;;;5.63;4.10;;;;;;;34.46;30.73;101775.63;5012302;28;20071;-80
2023/08/11 08:59:51;;;;;;;5.38;3.50;;;;;;;34.40;30.78;101786.16;5043816;28;20481;-80
2023/08/11 09:02:16;;;;;;;6.10;3.60;;;;;;;34.66;30.83;101781.56;5060412;28;20089;-80
2023/08/11 09:04:42;;;;;;;4.88;4.22;;;;;;;33.71;31.91;101776.91;5014717;28;20028;-80
2023/08/11 09:07:07;;;;;;;8.00;4.15;;;;;;;33.76;31.62;101773.13;5040606;28;20033;-81
2023/08/11 09:09:32;;;;;;;5.43;3.65;;;;;;;34.41;30.28;101781.38;5027074;28;20045;-81
2023/08/11 09:11:59;;;;;;;4.53;3.70;;;;;;;34.51;30.19;101778.22;5052026;28;20414;-81
2023/08/11 09:14:24;;;;;;;6.05;3.65;;;;;;;34.85;29.73;101787.50;5042236;28;20048;-82
2023/08/11 09:16:51;;;;;;;4.82;3.60;;;;;;;35.50;29.54;101781.50;5044369;28;20021;-81
2023/08/11 09:19:17;;;;;;;8.10;3.60;;;;;;;35.89;28.33;101786.81;5034612;28;20052;-81
2023/08/11 09:21:45;;;;;;;6.18;3.40;;;;;;;36.01;28.56;101788.00;5014935;28;20184;-81
2023/08/11 09:24:12;;;;;;;5.80;3.42;;;;;;;36.10;28.51;101783.94;5051118;28;20033;-81
2023/08/11 09:26:37;;;;;;;6.40;3.55;;;;;;;35.86;28.34;101781.06;5035491;28;20030;-80
2023/08/11 09:29:03;;;;;;;5.00;3.60;;;;;;;35.31;29.22;101775.56;5024148;28;20036;-81
2023/08/11 09:31:29;;;;;;;4.78;3.55;;;;;;;34.95;30.26;101766.72;5016145;28;20029;-81
2023/08/11 09:33:54;;;;;;;4.32;3.47;;;;;;;35.83;28.68;101776.19;5042564;28;20040;-81
2023/08/11 09:36:20;;;;;;;4.85;3.70;;;;;;;34.94;30.24;101765.06;5046055;28;20025;-81
2023/08/11 09:38:46;;;;;;;7.60;3.83;;;;;;;35.26;29.44;101778.63;5045424;28;20033;-81
2023/08/11 09:41:14;;;;;;;5.32;3.78;;;;;;;35.66;28.65;101776.06;5050202;28;20447;-81
2023/08/11 09:43:47;;;;;;;4.88;3.33;;;;;;;36.41;27.87;101782.50;5036209;28;20080;-81
2023/08/11 09:46:13;;;;;;;4.15;3.03;;;;;;;35.59;29.69;101777.78;5042700;28;20029;-81
2023/08/11 09:48:38;;;;;;;7.22;3.80;;;;;;;35.46;29.27;101779.75;5051959;28;20036;-81
2023/08/11 09:51:04;;;;;;;5.50;3.80;;;;;;;35.71;29.13;101782.59;5034385;28;20458;-81
2023/08/11 09:53:29;;;;;;;6.10;3.78;;;;;;;35.42;29.81;101784.34;5005604;28;20080;-80
2023/08/11 09:55:55;;;;;;;6.60;3.50;;;;;;;36.27;28.59;101779.25;5028686;28;20013;-81
2023/08/11 09:58:24;;;;;;;6.95;3.33;;;;;;;35.73;28.71;101781.06;5047683;28;20097;-81
2023/08/11 10:00:49;;;;;;;5.55;3.20;;;;;;;34.61;30.04;101769.41;5027254;28;20017;-81
2023/08/11 10:03:18;;;;;;;4.20;2.58;;;;;;;35.28;30.34;101779.91;5016379;28;20068;-81
2023/08/11 10:05:43;;;;;;;4.97;3.00;;;;;;;36.52;28.01;101782.06;5017308;28;20036;-80
2023/08/11 10:08:17;;;;;;;5.97;2.80;;;;;;;36.04;27.81;101776.13;5025103;28;20389;-80
2023/08/11 10:10:42;;;;;;;5.07;2.90;;;;;;;35.46;29.01;101779.75;5050079;28;20044;-81
2023/08/11 10:13:08;;;;;;;5.70;2.90;;;;;;;35.28;30.33;101773.50;5014791;28;20123;-81
2023/08/11 10:15:34;;;;;;;6.25;2.83;;;;;;;35.17;30.02;101762.72;5014735;28;20033;-81
2023/08/11 10:18:03;;;;;;;4.82;2.85;;;;;;;34.23;32.69;101759.13;5031378;28;20033;-80
2023/08/11 10:20:29;;;;;;;5.15;2.92;;;;;;;34.52;31.45;101760.28;5012558;28;20064;-80
2023/08/11 10:22:54;;;;;;;5.80;3.35;;;;;;;34.36;31.31;101754.44;5032651;28;20029;-80
2023/08/11 10:25:20;;;;;;;3.53;2.80;;;;;;;34.75;30.27;101763.56;5024733;28;20043;-80
2023/08/11 10:27:46;;;;;;;3.97;2.83;;;;;;;35.58;28.01;101762.16;5029360;28;20029;-81
2023/08/11 10:30:12;;;;;;;5.60;2.83;;;;;;;35.67;29.68;101757.25;5001456;28;20032;-81
2023/08/11 10:32:38;;;;;;;3.72;2.90;;;;;;;36.28;28.58;101750.03;5033774;28;20461;-81
2023/08/11 10:35:26;;;;;;;3.85;2.70;;;;;;;36.20;28.06;101750.97;5042601;28;20028;-81
2023/08/11 10:37:58;;;;;;;2.90;2.60;;;;;;;36.79;27.10;101749.59;5042969;28;20456;-81
2023/08/11 10:40:23;;;;;;;5.38;2.90;;;;;;;36.02;28.48;101745.63;5049341;28;20448;-81
2023/08/11 10:42:50;;;;;;;4.72;2.65;;;;;;;37.07;27.26;101745.19;5048464;28;20028;-81
2023/08/11 10:45:16;;;;;;;5.47;3.03;;;;;;;37.01;27.10;101741.78;5028677;28;20111;-83
2023/08/11 10:47:54;;;;;;;4.80;2.70;;;;;;;36.69;26.71;101742.50;5014161;28;20029;-83
2023/08/11 10:50:20;;;;;;;4.60;2.65;;;;;;;36.07;28.17;101748.19;5044106;28;20041;-81
2023/08/11 10:52:46;;;;;;;4.18;2.72;;;;;;;35.30;29.60;101743.19;5038454;28;20029;-82
2023/08/11 10:55:13;;;;;;;3.15;2.38;;;;;;;35.25;28.77;101738.59;5021773;28;20107;-81
2023/08/11 10:57:39;;;;;;;4.43;2.60;;;;;;;36.08;27.80;101733.00;5045446;28;20510;-81
2023/08/11 11:00:05;;;;;;;3.28;2.45;;;;;;;36.85;27.33;101741.72;5027878;28;20047;-81
2023/08/11 11:02:33;;;;;;;5.55;2.42;;;;;;;37.38;26.91;101746.41;5036909;28;20053;-81
2023/08/11 11:04:58;;;;;;;6.40;2.67;;;;;;;37.85;25.63;101748.41;5048889;28;20028;-82
2023/08/11 11:07:24;;;;;;;4.60;2.88;;;;;;;37.40;26.45;101750.47;5044619;28;20380;-81
2023/08/11 11:09:55;;;;;;;2.78;2.30;;;;;;;37.44;25.74;101757.03;5050218;28;20085;-82
2023/08/11 11:12:21;;;;;;;3.83;2.70;;;;;;;35.89;27.47;101755.16;5049329;28;20028;-81
2023/08/11 11:14:46;;;;;;;3.83;2.53;;;;;;;35.66;28.09;101756.44;5047828;28;20028;-81